createdAt,value
2022-11-12T00:00:28.323Z,101634.31
2022-11-12T00:03:14.562Z,101631.66
2022-11-12T00:06:01.193Z,101631.38
2022-11-12T00:08:47.500Z,101633.72
2022-11-12T00:11:35.155Z,101621.88
2022-11-12T00:14:21.598Z,101628.38
2022-11-12T00:17:07.648Z,101629.78
2022-11-12T00:19:53.980Z,101631.44
2022-11-12T00:22:40.458Z,101627.22
2022-11-12T00:25:26.585Z,101628.19
2022-11-12T00:28:14.181Z,101617.94
2022-11-12T00:31:00.372Z,101619.63
2022-11-12T00:33:46.448Z,101614.41
2022-11-12T00:36:35.694Z,101615.19
2022-11-12T00:39:22.275Z,101613.59
2022-11-12T00:42:08.318Z,101620.13
2022-11-12T00:44:55.900Z,101622.88
2022-11-12T00:47:41.969Z,101621.72
2022-11-12T00:50:28.206Z,101626.94
2022-11-12T00:53:14.332Z,101615.50
2022-11-12T00:56:05.031Z,101617.34
2022-11-12T00:58:51.334Z,101618.16
2022-11-12T01:01:39.371Z,101627.81
2022-11-12T01:04:25.740Z,101633.13
2022-11-12T01:07:12.090Z,101635.38
2022-11-12T01:09:58.047Z,101622.00
2022-11-12T01:12:44.286Z,101623.47
2022-11-12T01:15:30.499Z,101624.97
2022-11-12T01:18:17.851Z,101626.22
2022-11-12T01:21:05.434Z,101618.94
2022-11-12T01:23:52.454Z,101617.47
2022-11-12T01:26:39.387Z,101611.47
2022-11-12T01:29:25.992Z,101620.13
2022-11-12T01:32:12.390Z,101618.06
2022-11-12T01:34:59.872Z,101610.16
2022-11-12T01:37:45.976Z,101607.88
2022-11-12T01:40:33.143Z,101629.97
2022-11-12T01:43:19.229Z,101616.00
2022-11-12T01:46:13.329Z,101612.63
2022-11-12T01:49:02.920Z,101609.59
2022-11-12T01:51:56.133Z,101605.56
2022-11-12T01:54:44.575Z,101606.94
2022-11-12T01:57:35.753Z,101601.81
2022-11-12T02:00:22.375Z,101612.06
2022-11-12T02:03:13.712Z,101595.31
2022-11-12T02:06:04.138Z,101589.59
2022-11-12T02:08:52.612Z,101585.84
2022-11-12T02:11:38.966Z,101588.22
2022-11-12T02:14:24.190Z,101574.63
2022-11-12T02:17:10.468Z,101581.91
2022-11-12T02:19:59.876Z,101586.53
2022-11-12T02:22:47.464Z,101587.84
2022-11-12T02:25:34.482Z,101581.31
2022-11-12T02:28:20.912Z,101575.78
2022-11-12T02:31:07.432Z,101579.16
2022-11-12T02:33:53.949Z,101592.75
2022-11-12T02:36:40.138Z,101588.50
2022-11-12T02:39:27.727Z,101589.59
2022-11-12T02:42:13.940Z,101582.72
2022-11-12T02:45:00.083Z,101582.72
2022-11-12T02:47:46.302Z,101585.28
2022-11-12T02:50:32.475Z,101590.19
2022-11-12T02:53:18.597Z,101589.38
2022-11-12T02:56:06.787Z,101588.50
2022-11-12T02:58:52.956Z,101587.84
2022-11-12T03:01:38.916Z,101587.91
2022-11-12T03:04:25.130Z,101599.13
2022-11-12T03:07:11.444Z,101591.34
2022-11-12T03:09:57.459Z,101585.03
2022-11-12T03:12:44.909Z,101589.91
2022-11-12T03:15:31.296Z,101586.00
2022-11-12T03:18:17.664Z,101588.31
2022-11-12T03:21:04.019Z,101591.06
2022-11-12T03:23:50.450Z,101595.19
2022-11-12T03:26:36.581Z,101594.25
2022-11-12T03:29:24.018Z,101597.84
2022-11-12T03:32:10.253Z,101595.66
2022-11-12T03:34:56.442Z,101595.00
2022-11-12T03:37:42.628Z,101596.59
2022-11-12T03:40:29.311Z,101594.34
2022-11-12T03:43:15.554Z,101584.03
2022-11-12T03:46:03.145Z,101595.03
2022-11-12T03:48:49.307Z,101594.72
2022-11-12T03:51:35.396Z,101595.69
2022-11-12T03:54:21.602Z,101594.25
2022-11-12T03:57:07.893Z,101593.03
2022-11-12T03:59:54.014Z,101591.91
2022-11-12T04:02:42.181Z,101591.72
2022-11-12T04:05:46.789Z,101586.19
2022-11-12T04:08:39.174Z,101582.44
2022-11-12T04:11:25.525Z,101596.59
2022-11-12T04:14:11.684Z,101591.06
2022-11-12T04:17:15.302Z,101589.50
2022-11-12T04:20:20.320Z,101582.84
2022-11-12T04:23:06.711Z,101582.19
2022-11-12T04:26:10.280Z,101582.28
2022-11-12T04:29:13.979Z,101583.00
2022-11-12T04:32:00.254Z,101583.97
2022-11-12T04:34:46.712Z,101583.41
2022-11-12T04:37:45.110Z,101587.31
2022-11-12T04:40:49.491Z,101591.88
2022-11-12T04:43:52.302Z,101584.66
2022-11-12T04:46:38.549Z,101592.66
2022-11-12T04:49:24.490Z,101582.63
2022-11-12T04:52:10.655Z,101585.78
2022-11-12T04:54:59.145Z,101581.09
2022-11-12T04:57:45.312Z,101586.78
2022-11-12T05:00:31.949Z,101585.13
2022-11-12T05:03:18.075Z,101582.13
2022-11-12T05:06:04.865Z,101576.25
2022-11-12T05:08:50.939Z,101581.53
2022-11-12T05:11:38.523Z,101575.97
2022-11-12T05:14:24.931Z,101569.34
2022-11-12T05:17:11.183Z,101567.53
2022-11-12T05:19:57.203Z,101569.97
2022-11-12T05:22:54.283Z,101571.53
2022-11-12T05:25:49.743Z,101572.81
2022-11-12T05:28:37.180Z,101571.47
2022-11-12T05:31:23.303Z,101572.16
2022-11-12T05:34:09.525Z,101574.81
2022-11-12T05:36:55.658Z,101574.81
2022-11-12T05:39:41.937Z,101573.28
2022-11-12T05:42:28.335Z,101571.06
2022-11-12T05:45:15.991Z,101568.78
2022-11-12T05:48:02.390Z,101573.88
2022-11-12T05:51:11.889Z,101587.72
2022-11-12T05:53:56.875Z,101587.72
2022-11-12T05:56:42.946Z,101585.47
2022-11-12T05:59:29.044Z,101588.47
2022-11-12T06:02:16.592Z,101600.78
2022-11-12T06:05:02.920Z,101597.50
2022-11-12T06:07:49.244Z,101599.44
2022-11-12T06:10:36.122Z,101609.38
2022-11-12T06:13:24.495Z,101606.69
2022-11-12T06:16:10.901Z,101609.47
2022-11-12T06:18:58.923Z,101609.66
2022-11-12T06:21:45.423Z,101613.56
2022-11-12T06:24:35.405Z,101611.03
2022-11-12T06:27:21.652Z,101618.13
2022-11-12T06:30:09.158Z,101614.25
2022-11-12T06:32:55.553Z,101626.81
2022-11-12T06:35:43.405Z,101615.88
2022-11-12T06:38:30.946Z,101623.56
2022-11-12T06:41:17.242Z,101631.22
2022-11-12T06:44:04.854Z,101627.13
2022-11-12T06:46:51.552Z,101628.53
2022-11-12T06:49:37.913Z,101626.75
2022-11-12T06:52:25.528Z,101625.19
2022-11-12T06:55:11.710Z,101635.22
2022-11-12T06:57:57.958Z,101630.03
2022-11-12T07:00:44.064Z,101622.28
2022-11-12T07:03:30.098Z,101624.94
2022-11-12T07:06:20.182Z,101622.28
2022-11-12T07:09:08.221Z,101627.00
2022-11-12T07:11:54.516Z,101616.63
2022-11-12T07:14:40.802Z,101613.25
2022-11-12T07:17:26.997Z,101614.03
2022-11-12T07:20:13.633Z,101612.59
2022-11-12T07:23:01.285Z,101611.69
2022-11-12T07:25:56.677Z,101605.63
2022-11-12T07:28:43.223Z,101614.44
2022-11-12T07:31:29.501Z,101614.44
2022-11-12T07:34:15.579Z,101605.00
2022-11-12T07:37:01.861Z,101604.72
2022-11-12T07:39:48.036Z,101615.41
2022-11-12T07:42:36.602Z,101616.63
2022-11-12T07:45:23.112Z,101611.06
2022-11-12T07:48:09.324Z,101601.94
2022-11-12T07:51:01.712Z,101605.28
2022-11-12T07:53:48.908Z,101592.66
2022-11-12T07:56:35.253Z,101592.78
2022-11-12T07:59:22.826Z,101586.88
2022-11-12T08:02:10.248Z,101590.09
2022-11-12T08:04:56.455Z,101601.97
2022-11-12T08:07:42.850Z,101612.19
2022-11-12T08:10:29.551Z,101611.56
2022-11-12T08:13:15.877Z,101593.56
2022-11-12T08:16:03.627Z,101601.97
2022-11-12T08:18:50.084Z,101612.19
2022-11-12T08:21:36.599Z,101601.56
2022-11-12T08:24:22.783Z,101604.19
2022-11-12T08:27:09.115Z,101601.66
2022-11-12T08:29:55.358Z,101591.75
2022-11-12T08:32:42.947Z,101595.63
2022-11-12T08:35:30.874Z,101601.25
2022-11-12T08:38:17.891Z,101608.75
2022-11-12T08:41:06.518Z,101619.13
2022-11-12T08:43:53.036Z,101616.16
2022-11-12T08:46:39.119Z,101608.63
2022-11-12T08:49:26.696Z,101608.22
2022-11-12T08:52:12.861Z,101621.06
2022-11-12T08:54:58.919Z,101620.09
2022-11-12T08:57:46.081Z,101618.06
2022-11-12T09:00:34.069Z,101619.91
2022-11-12T09:03:21.807Z,101620.59
2022-11-12T09:06:09.587Z,101619.97
2022-11-12T09:08:55.733Z,101615.72
2022-11-12T09:11:41.953Z,101617.50
2022-11-12T09:14:28.220Z,101613.00
2022-11-12T09:17:15.548Z,101612.13
2022-11-12T09:20:01.648Z,101615.69
2022-11-12T09:22:49.212Z,101616.00
2022-11-12T09:25:36.485Z,101624.38
2022-11-12T09:28:22.641Z,101615.59
2022-11-12T09:31:09.640Z,101621.81
2022-11-12T09:33:55.841Z,101620.13
2022-11-12T09:36:42.221Z,101629.88
2022-11-12T09:39:29.616Z,101628.63
2022-11-12T09:42:19.728Z,101631.75
2022-11-12T09:45:14.121Z,101623.97
2022-11-12T09:48:07.550Z,101627.31
2022-11-12T09:50:59.705Z,101621.63
2022-11-12T09:53:51.673Z,101627.00
2022-11-12T09:56:39.377Z,101619.34
2022-11-12T09:59:29.599Z,101631.56
2022-11-12T10:02:27.439Z,101624.75
2022-11-12T10:05:27.336Z,101630.28
2022-11-12T10:08:29.999Z,101624.69
2022-11-12T10:12:01.260Z,101621.47
2022-11-12T10:15:21.974Z,101618.75
2022-11-12T10:18:14.375Z,101616.09
2022-11-12T10:21:08.945Z,101619.75
2022-11-12T10:23:55.590Z,101614.72
2022-11-12T10:26:41.916Z,101619.13
2022-11-12T10:29:33.060Z,101613.47
2022-11-12T10:32:20.938Z,101607.31
2022-11-12T10:35:07.891Z,101612.44
2022-11-12T10:37:58.370Z,101606.50
2022-11-12T10:40:44.833Z,101607.47
2022-11-12T10:43:31.070Z,101609.13
2022-11-12T10:46:20.641Z,101616.59
2022-11-12T10:49:24.353Z,101605.97
2022-11-12T10:52:23.089Z,101607.00
2022-11-12T10:55:18.652Z,101616.09
2022-11-12T10:58:07.004Z,101610.03
2022-11-12T11:00:57.284Z,101605.28
2022-11-12T11:03:48.423Z,101598.16
2022-11-12T11:06:36.125Z,101598.19
2022-11-12T11:09:22.366Z,101592.13
2022-11-12T11:12:23.873Z,101590.81
2022-11-12T11:15:20.496Z,101589.31
2022-11-12T11:18:09.163Z,101587.56
2022-11-12T11:21:04.802Z,101591.88
2022-11-12T11:23:58.564Z,101582.44
2022-11-12T11:26:57.573Z,101582.06
2022-11-12T11:30:02.818Z,101585.25
2022-11-12T11:33:10.235Z,101590.56
2022-11-12T11:36:21.097Z,101582.06
2022-11-12T11:39:20.735Z,101577.47
2022-11-12T11:42:25.414Z,101568.81
2022-11-12T11:45:17.939Z,101571.84
2022-11-12T11:48:13.787Z,101568.66
2022-11-12T11:51:05.976Z,101564.41
2022-11-12T11:54:03.961Z,101564.56
2022-11-12T11:56:56.938Z,101567.63
2022-11-12T11:59:54.597Z,101569.56
2022-11-12T12:03:06.596Z,101567.59
2022-11-12T12:06:16.757Z,101560.63
2022-11-12T12:09:28.127Z,101560.19
2022-11-12T12:12:27.972Z,101557.47
2022-11-12T12:15:37.699Z,101555.13
2022-11-12T12:18:35.476Z,101549.28
2022-11-12T12:21:25.894Z,101544.75
2022-11-12T12:24:19.029Z,101542.06
2022-11-12T12:27:13.303Z,101538.50
2022-11-12T12:30:04.701Z,101531.50
2022-11-12T12:32:56.817Z,101534.47
2022-11-12T12:35:53.663Z,101533.75
2022-11-12T12:38:45.430Z,101526.56
2022-11-12T12:41:40.118Z,101521.56
2022-11-12T12:44:44.877Z,101521.28
2022-11-12T12:47:36.957Z,101517.31
2022-11-12T12:50:24.435Z,101519.72
2022-11-12T12:53:19.555Z,101506.47
2022-11-12T12:56:07.511Z,101507.81
2022-11-12T12:58:55.162Z,101500.66
2022-11-12T13:01:41.531Z,101492.53
2022-11-12T13:04:53.612Z,101490.22
2022-11-12T13:07:43.092Z,101497.94
2022-11-12T13:10:48.295Z,101489.00
2022-11-12T13:13:36.286Z,101489.72
2022-11-12T13:16:56.887Z,101481.72
2022-11-12T13:19:47.437Z,101487.94
2022-11-12T13:22:53.695Z,101481.38
2022-11-12T13:25:40.492Z,101475.19
2022-11-12T13:28:29.224Z,101471.22
2022-11-12T13:31:28.874Z,101472.81
2022-11-12T13:34:22.500Z,101479.81
2022-11-12T13:37:21.009Z,101470.69
2022-11-12T13:40:14.598Z,101481.94
2022-11-12T13:43:07.973Z,101482.50
2022-11-12T13:46:00.314Z,101472.69
2022-11-12T13:48:49.009Z,101473.91
2022-11-12T13:51:40.351Z,101465.56
2022-11-12T13:54:34.485Z,101469.97
2022-11-12T13:57:29.488Z,101463.38
2022-11-12T14:00:26.337Z,101460.03
2022-11-12T14:03:18.211Z,101453.97
2022-11-12T14:06:15.567Z,101455.03
2022-11-12T14:09:21.199Z,101446.28
2022-11-12T14:12:34.960Z,101446.53
2022-11-12T14:15:36.976Z,101447.78
2022-11-12T14:18:34.996Z,101448.03
2022-11-12T14:21:22.641Z,101450.41
2022-11-12T14:24:13.360Z,101450.25
2022-11-12T14:26:59.694Z,101444.25
2022-11-12T14:29:47.220Z,101451.22
2022-11-12T14:32:37.715Z,101446.69
2022-11-12T14:35:30.914Z,101443.88
2022-11-12T14:38:21.172Z,101435.78
2022-11-12T14:41:10.767Z,101437.53
2022-11-12T14:44:11.959Z,101446.72
2022-11-12T14:47:01.349Z,101434.97
2022-11-12T14:49:50.211Z,101434.69
2022-11-12T14:52:40.917Z,101428.97
2022-11-12T14:55:30.452Z,101433.44
2022-11-12T14:58:18.448Z,101430.81
2022-11-12T15:01:55.754Z,101419.66
2022-11-12T15:04:38.147Z,101421.44
2022-11-12T15:07:25.900Z,101423.44
2022-11-12T15:10:34.366Z,101420.53
2022-11-12T15:13:23.398Z,101416.56
2022-11-12T15:16:12.024Z,101408.88
2022-11-12T15:19:18.509Z,101402.50
2022-11-12T15:22:06.283Z,101394.91
2022-11-12T15:24:52.826Z,101401.78
2022-11-12T15:27:41.049Z,101403.00
2022-11-12T15:30:30.543Z,101396.22
2022-11-12T15:33:22.138Z,101390.19
2022-11-12T15:36:17.784Z,101383.13
2022-11-12T15:39:12.911Z,101374.44
2022-11-12T15:42:01.285Z,101375.44
2022-11-12T15:44:48.477Z,101380.38
2022-11-12T15:47:34.860Z,101372.69
2022-11-12T15:50:22.696Z,101363.22
2022-11-12T15:53:08.800Z,101363.22
2022-11-12T15:55:56.527Z,101358.09
2022-11-12T15:58:42.635Z,101361.28
2022-11-12T16:01:28.975Z,101361.13
2022-11-12T16:04:15.838Z,101359.19
2022-11-12T16:07:02.455Z,101355.00
2022-11-12T16:09:48.819Z,101363.69
2022-11-12T16:12:36.340Z,101356.97
2022-11-12T16:15:25.469Z,101363.03
2022-11-12T16:18:11.969Z,101363.22
2022-11-12T16:20:58.171Z,101361.47
2022-11-12T16:23:44.467Z,101351.22
2022-11-12T16:26:33.225Z,101347.84
2022-11-12T16:29:21.059Z,101352.25
2022-11-12T16:32:07.634Z,101342.72
2022-11-12T16:34:58.385Z,101345.53
2022-11-12T16:37:48.145Z,101339.53
2022-11-12T16:40:34.454Z,101349.84
2022-11-12T16:43:20.588Z,101341.44
2022-11-12T16:46:15.861Z,101344.81
2022-11-12T16:49:03.247Z,101332.78
2022-11-12T16:51:50.503Z,101337.03
2022-11-12T16:54:36.828Z,101335.97
2022-11-12T16:57:23.126Z,101345.63
2022-11-12T17:00:12.805Z,101333.84
2022-11-12T17:03:00.313Z,101338.16
2022-11-12T17:05:51.832Z,101333.13
2022-11-12T17:08:38.372Z,101332.31
2022-11-12T17:11:24.679Z,101327.97
2022-11-12T17:14:10.983Z,101324.63
2022-11-12T17:16:57.763Z,101322.84
2022-11-12T17:19:46.437Z,101327.84
2022-11-12T17:22:32.593Z,101323.41
2022-11-12T17:25:18.900Z,101316.59
2022-11-12T17:28:05.169Z,101317.06
2022-11-12T17:30:51.358Z,101309.44
2022-11-12T17:33:42.100Z,101306.00
2022-11-12T17:36:29.663Z,101304.75
2022-11-12T17:39:16.063Z,101302.19
2022-11-12T17:42:02.247Z,101304.56
2022-11-12T17:44:48.872Z,101308.09
2022-11-12T17:47:40.143Z,101299.34
2022-11-12T17:50:27.191Z,101308.56
2022-11-12T17:53:15.005Z,101309.69
2022-11-12T17:56:01.793Z,101303.63
2022-11-12T17:58:49.664Z,101302.81
2022-11-12T18:01:36.086Z,101300.38
2022-11-12T18:04:23.954Z,101294.47
2022-11-12T18:07:10.408Z,101291.75
2022-11-12T18:09:57.794Z,101291.59
2022-11-12T18:12:44.034Z,101290.53
2022-11-12T18:15:31.764Z,101298.16
2022-11-12T18:18:18.686Z,101293.00
2022-11-12T18:21:05.734Z,101293.00
2022-11-12T18:23:52.332Z,101298.75
2022-11-12T18:26:40.087Z,101292.66
2022-11-12T18:29:26.260Z,101303.72
2022-11-12T18:32:12.325Z,101292.50
2022-11-12T18:34:58.626Z,101287.38
2022-11-12T18:37:45.699Z,101283.13
2022-11-12T18:40:32.040Z,101289.13
2022-11-12T18:43:19.621Z,101288.94
2022-11-12T18:46:07.390Z,101286.22
2022-11-12T18:48:53.863Z,101288.19
2022-11-12T18:51:40.458Z,101281.44
2022-11-12T18:54:26.719Z,101278.88
2022-11-12T18:57:13.031Z,101273.75
2022-11-12T19:00:00.614Z,101282.38
2022-11-12T19:02:46.927Z,101275.34
2022-11-12T19:05:33.243Z,101279.06
2022-11-12T19:08:19.512Z,101275.84
2022-11-12T19:11:07.743Z,101273.91
2022-11-12T19:13:55.270Z,101268.59
2022-11-12T19:16:44.660Z,101261.72
2022-11-12T19:19:31.261Z,101272.31
2022-11-12T19:22:17.321Z,101267.00
2022-11-12T19:25:03.557Z,101265.09
2022-11-12T19:27:50.098Z,101262.41
2022-11-12T19:30:36.558Z,101259.78
2022-11-12T19:33:24.389Z,101263.16
2022-11-12T19:36:14.011Z,101260.13
2022-11-12T19:39:02.465Z,101256.56
2022-11-12T19:41:48.799Z,101256.94
2022-11-12T19:44:34.880Z,101264.53
2022-11-12T19:47:20.948Z,101255.97
2022-11-12T19:50:09.764Z,101262.22
2022-11-12T19:52:56.283Z,101256.59
2022-11-12T19:55:42.591Z,101251.63
2022-11-12T19:58:29.566Z,101248.59
2022-11-12T20:01:18.106Z,101247.19
2022-11-12T20:04:04.342Z,101247.31
2022-11-12T20:06:51.808Z,101247.19
2022-11-12T20:09:38.258Z,101244.34
2022-11-12T20:12:25.139Z,101241.34
2022-11-12T20:15:11.803Z,101238.53
2022-11-12T20:17:57.925Z,101233.94
2022-11-12T20:20:47.610Z,101235.56
2022-11-12T20:23:36.208Z,101228.22
2022-11-12T20:26:22.266Z,101229.50
2022-11-12T20:29:08.511Z,101225.25
2022-11-12T20:31:54.927Z,101228.91
2022-11-12T20:34:41.195Z,101227.91
2022-11-12T20:37:27.615Z,101222.66
2022-11-12T20:40:15.037Z,101219.19
2022-11-12T20:43:01.388Z,101222.47
2022-11-12T20:45:51.609Z,101213.34
2022-11-12T20:48:42.872Z,101218.31
2022-11-12T20:51:30.201Z,101217.41
2022-11-12T20:54:16.625Z,101219.91
2022-11-12T20:57:04.146Z,101214.84
2022-11-12T20:59:51.644Z,101209.91
2022-11-12T21:02:38.517Z,101209.81
2022-11-12T21:05:24.764Z,101202.75
2022-11-12T21:08:10.955Z,101202.75
2022-11-12T21:10:57.915Z,101195.25
2022-11-12T21:13:45.716Z,101189.88
2022-11-12T21:16:32.374Z,101195.53
2022-11-12T21:19:18.605Z,101192.78
2022-11-12T21:22:04.647Z,101188.47
2022-11-12T21:24:50.963Z,101189.41
2022-11-12T21:27:37.146Z,101185.09
2022-11-12T21:30:24.713Z,101191.81
2022-11-12T21:33:10.860Z,101189.34
2022-11-12T21:35:57.606Z,101188.63
2022-11-12T21:38:43.964Z,101180.84
2022-11-12T21:41:31.928Z,101187.66
2022-11-12T21:44:18.371Z,101188.63
2022-11-12T21:47:05.953Z,101191.19
2022-11-12T21:49:52.276Z,101183.50
2022-11-12T21:52:38.547Z,101185.44
2022-11-12T21:55:24.517Z,101187.03
2022-11-12T21:58:10.695Z,101186.97
2022-11-12T22:00:57.041Z,101186.25
2022-11-12T22:03:45.751Z,101175.38
2022-11-12T22:06:31.906Z,101182.44
2022-11-12T22:09:18.135Z,101178.19
2022-11-12T22:12:04.359Z,101179.34
2022-11-12T22:14:50.461Z,101172.38
2022-11-12T22:17:36.677Z,101169.72
2022-11-12T22:20:24.079Z,101171.41
2022-11-12T22:23:10.327Z,101174.66
2022-11-12T22:25:58.124Z,101176.28
2022-11-12T22:28:44.738Z,101169.59
2022-11-12T22:31:32.643Z,101164.81
2022-11-12T22:34:18.735Z,101156.94
2022-11-12T22:37:06.483Z,101146.34
2022-11-12T22:39:52.537Z,101143.44
2022-11-12T22:42:38.625Z,101145.06
2022-11-12T22:45:24.815Z,101128.69
2022-11-12T22:48:11.048Z,101133.03
2022-11-12T22:50:59.670Z,101142.22
2022-11-12T22:53:47.774Z,101128.97
2022-11-12T22:56:34.191Z,101133.94
2022-11-12T22:59:20.615Z,101126.31
2022-11-12T23:02:07.819Z,101125.09
2022-11-12T23:04:53.918Z,101117.06
2022-11-12T23:07:40.019Z,101109.19
2022-11-12T23:10:27.452Z,101105.69
2022-11-12T23:13:13.522Z,101111.56
2022-11-12T23:15:59.943Z,101105.47
2022-11-12T23:18:46.361Z,101104.88
2022-11-12T23:21:32.428Z,101092.59
2022-11-12T23:24:18.625Z,101094.16
2022-11-12T23:27:05.993Z,101091.81
2022-11-12T23:29:52.375Z,101097.38
2022-11-12T23:32:38.598Z,101098.78
2022-11-12T23:35:24.613Z,101088.69
2022-11-12T23:38:10.781Z,101085.63
2022-11-12T23:40:57.611Z,101087.38
2022-11-12T23:43:45.635Z,101083.66
2022-11-12T23:46:31.902Z,101083.75
2022-11-12T23:49:18.105Z,101072.88
2022-11-12T23:52:04.445Z,101077.41
2022-11-12T23:54:50.689Z,101082.16
2022-11-12T23:57:36.769Z,101079.50
